createdAt,value
2022-08-02T00:00:38.190Z,18.96
2022-08-02T00:03:05.124Z,18.75
2022-08-02T00:05:32.300Z,19.26
2022-08-02T00:07:59.281Z,19.09
2022-08-02T00:10:26.414Z,19.19
2022-08-02T00:12:53.898Z,19.20
2022-08-02T00:15:22.663Z,18.94
2022-08-02T00:17:50.181Z,19.05
2022-08-02T00:20:17.478Z,18.79
2022-08-02T00:22:44.401Z,19.04
2022-08-02T00:25:11.386Z,18.98
2022-08-02T00:27:38.555Z,19.01
2022-08-02T00:30:06.086Z,18.79
2022-08-02T00:32:33.148Z,19.00
2022-08-02T00:35:00.120Z,18.97
2022-08-02T00:37:27.132Z,18.55
2022-08-02T00:39:57.527Z,18.46
2022-08-02T00:42:24.906Z,18.85
2022-08-02T00:44:51.872Z,18.85
2022-08-02T00:47:19.755Z,18.71
2022-08-02T00:49:47.671Z,18.63
2022-08-02T00:52:14.972Z,18.85
2022-08-02T00:54:42.145Z,18.87
2022-08-02T00:57:09.343Z,18.82
2022-08-02T00:59:36.402Z,18.76
2022-08-02T01:02:03.604Z,18.45
2022-08-02T01:04:32.179Z,18.79
2022-08-02T01:07:01.698Z,18.70
2022-08-02T01:09:28.706Z,18.34
2022-08-02T01:11:56.429Z,18.71
2022-08-02T01:14:25.363Z,18.57
2022-08-02T01:17:16.471Z,18.55
2022-08-02T01:19:58.573Z,18.56
2022-08-02T01:23:04.536Z,17.56
2022-08-02T01:25:59.335Z,18.66
2022-08-02T01:28:44.839Z,18.04
2022-08-02T01:31:31.097Z,18.36
2022-08-02T01:34:16.970Z,18.56
2022-08-02T01:36:56.007Z,18.08
2022-08-02T01:39:32.225Z,18.25
2022-08-02T01:42:02.200Z,18.28
2022-08-02T01:44:33.471Z,18.16
2022-08-02T01:47:05.200Z,18.01
2022-08-02T01:49:34.612Z,18.39
2022-08-02T01:52:22.265Z,18.40
2022-08-02T01:55:18.779Z,18.50
2022-08-02T01:57:55.607Z,17.53
2022-08-02T02:00:25.529Z,18.16
2022-08-02T02:02:55.379Z,17.74
2022-08-02T02:05:24.980Z,18.38
2022-08-02T02:07:57.455Z,18.18
2022-08-02T02:10:30.419Z,18.38
2022-08-02T02:13:02.983Z,18.30
2022-08-02T02:15:31.790Z,18.33
2022-08-02T02:18:12.753Z,18.29
2022-08-02T02:20:42.595Z,18.17
2022-08-02T02:23:10.635Z,18.33
2022-08-02T02:25:46.869Z,17.79
2022-08-02T02:28:17.144Z,18.33
2022-08-02T02:30:48.739Z,18.31
2022-08-02T02:33:19.374Z,18.33
2022-08-02T02:35:49.949Z,18.24
2022-08-02T02:38:19.081Z,18.15
2022-08-02T02:40:48.232Z,17.70
2022-08-02T02:43:17.414Z,18.16
2022-08-02T02:45:46.328Z,18.29
2022-08-02T02:48:16.004Z,17.83
2022-08-02T02:50:43.656Z,18.38
2022-08-02T02:53:13.455Z,18.19
2022-08-02T02:55:42.352Z,17.97
2022-08-02T02:58:30.072Z,18.13
2022-08-02T03:01:15.819Z,18.37
2022-08-02T03:03:45.523Z,18.31
2022-08-02T03:06:15.169Z,18.29
2022-08-02T03:08:43.015Z,18.30
2022-08-02T03:11:10.535Z,18.51
2022-08-02T03:13:39.114Z,18.55
2022-08-02T03:16:06.943Z,18.31
2022-08-02T03:18:39.136Z,18.61
2022-08-02T03:21:08.704Z,17.53
2022-08-02T03:23:36.344Z,18.56
2022-08-02T03:26:03.657Z,18.72
2022-08-02T03:28:31.079Z,18.20
2022-08-02T03:30:58.382Z,18.58
2022-08-02T03:33:26.882Z,17.88
2022-08-02T03:35:57.281Z,18.48
2022-08-02T03:38:29.094Z,18.88
2022-08-02T03:40:57.968Z,18.93
2022-08-02T03:43:28.774Z,19.04
2022-08-02T03:45:56.902Z,19.09
2022-08-02T03:48:34.990Z,19.06
2022-08-02T03:51:02.582Z,19.21
2022-08-02T03:53:30.347Z,19.21
2022-08-02T03:55:57.787Z,19.26
2022-08-02T03:58:25.069Z,19.42
2022-08-02T04:00:53.699Z,19.22
2022-08-02T04:03:20.921Z,19.31
2022-08-02T04:06:04.276Z,19.32
2022-08-02T04:08:37.672Z,19.59
2022-08-02T04:11:25.135Z,19.67
2022-08-02T04:13:56.572Z,19.80
2022-08-02T04:16:30.521Z,19.88
2022-08-02T04:19:01.685Z,19.93
2022-08-02T04:21:49.020Z,19.97
2022-08-02T04:24:24.614Z,19.88
2022-08-02T04:26:57.743Z,19.99
2022-08-02T04:29:30.657Z,20.22
2022-08-02T04:32:00.324Z,20.17
2022-08-02T04:34:27.656Z,20.36
2022-08-02T04:36:55.182Z,19.89
2022-08-02T04:39:22.130Z,20.21
2022-08-02T04:41:49.100Z,20.27
2022-08-02T04:44:16.118Z,20.61
2022-08-02T04:46:44.645Z,20.28
2022-08-02T04:49:12.203Z,20.65
2022-08-02T04:51:42.099Z,20.68
2022-08-02T04:54:10.678Z,20.95
2022-08-02T04:56:39.115Z,20.47
2022-08-02T04:59:06.620Z,20.92
2022-08-02T05:01:35.700Z,21.13
2022-08-02T05:04:04.004Z,20.84
2022-08-02T05:06:31.380Z,21.18
2022-08-02T05:08:58.777Z,21.34
2022-08-02T05:11:34.204Z,21.33
2022-08-02T05:14:02.111Z,21.37
2022-08-02T05:16:30.712Z,21.39
2022-08-02T05:19:02.670Z,21.60
2022-08-02T05:21:31.859Z,21.78
2022-08-02T05:23:59.122Z,21.26
2022-08-02T05:26:26.102Z,21.64
2022-08-02T05:28:53.053Z,21.60
2022-08-02T05:31:20.368Z,22.13
2022-08-02T05:33:47.348Z,22.12
2022-08-02T05:36:14.480Z,22.16
2022-08-02T05:38:42.820Z,22.23
2022-08-02T05:41:19.263Z,22.11
2022-08-02T05:43:47.322Z,22.30
2022-08-02T05:46:14.508Z,22.16
2022-08-02T05:48:41.487Z,22.31
2022-08-02T05:51:15.648Z,22.39
2022-08-02T05:53:52.295Z,22.51
2022-08-02T05:56:25.353Z,22.48
2022-08-02T05:59:33.876Z,22.26
2022-08-02T06:02:16.478Z,22.67
2022-08-02T06:05:30.487Z,22.89
2022-08-02T06:07:59.580Z,22.84
2022-08-02T06:10:28.750Z,22.38
2022-08-02T06:13:14.463Z,22.95
2022-08-02T06:15:52.540Z,22.89
2022-08-02T06:18:27.779Z,23.08
2022-08-02T06:22:31.689Z,23.15
2022-08-02T06:23:58.744Z,22.79
2022-08-02T06:26:28.414Z,23.37
2022-08-02T06:28:57.225Z,23.59
2022-08-02T06:31:24.588Z,24.01
2022-08-02T06:33:52.299Z,24.60
2022-08-02T06:36:37.804Z,24.97
2022-08-02T06:39:13.479Z,25.65
2022-08-02T06:41:42.686Z,25.84
2022-08-02T06:47:12.934Z,26.45
2022-08-02T06:49:52.790Z,26.52
2022-08-02T06:52:28.249Z,26.47
2022-08-02T06:55:00.834Z,26.33
2022-08-02T06:57:30.889Z,26.25
2022-08-02T07:00:01.094Z,26.21
2022-08-02T07:02:30.872Z,26.16
2022-08-02T07:04:58.384Z,26.05
2022-08-02T07:07:26.484Z,25.70
2022-08-02T07:09:56.936Z,26.07
2022-08-02T07:12:33.922Z,25.98
2022-08-02T07:15:02.876Z,25.84
2022-08-02T07:17:33.352Z,25.99
2022-08-02T07:20:00.996Z,25.82
2022-08-02T07:22:29.473Z,25.96
2022-08-02T07:24:58.006Z,25.93
2022-08-02T07:27:25.841Z,25.98
2022-08-02T07:29:53.312Z,26.00
2022-08-02T07:32:23.157Z,25.65
2022-08-02T07:34:52.854Z,26.05
2022-08-02T07:37:35.926Z,25.77
2022-08-02T07:40:19.782Z,25.96
2022-08-02T07:42:49.770Z,25.64
2022-08-02T07:45:16.826Z,26.12
2022-08-02T07:47:45.226Z,26.19
2022-08-02T07:50:14.567Z,26.22
2022-08-02T07:52:42.127Z,26.28
2022-08-02T07:55:11.019Z,26.07
2022-08-02T07:57:45.448Z,26.16
2022-08-02T08:00:13.986Z,26.28
2022-08-02T08:02:41.071Z,26.10
2022-08-02T08:05:08.662Z,26.46
2022-08-02T08:07:35.825Z,26.29
2022-08-02T08:10:04.243Z,26.28
2022-08-02T08:12:31.228Z,26.23
2022-08-02T08:14:58.261Z,26.26
2022-08-02T08:17:25.380Z,25.91
2022-08-02T08:19:53.106Z,26.17
2022-08-02T08:22:21.103Z,25.13
2022-08-02T08:24:48.947Z,26.23
2022-08-02T08:27:22.607Z,26.27
2022-08-02T08:29:50.409Z,26.24
2022-08-02T08:32:18.633Z,25.99
2022-08-02T08:34:47.192Z,26.31
2022-08-02T08:37:17.650Z,26.56
2022-08-02T08:39:56.312Z,26.28
2022-08-02T08:42:29.430Z,26.60
2022-08-02T08:44:57.340Z,26.78
2022-08-02T08:47:39.923Z,25.84
2022-08-02T08:50:17.880Z,26.50
2022-08-02T08:52:57.660Z,26.46
2022-08-02T08:55:27.200Z,26.59
2022-08-02T08:57:55.613Z,26.72
2022-08-02T09:00:22.839Z,27.11
2022-08-02T09:02:50.018Z,27.12
2022-08-02T09:05:17.890Z,27.00
2022-08-02T09:07:49.759Z,26.84
2022-08-02T09:10:36.253Z,25.79
2022-08-02T09:13:38.390Z,26.87
2022-08-02T09:16:12.833Z,26.60
2022-08-02T09:18:46.850Z,26.63
2022-08-02T09:21:17.165Z,27.17
2022-08-02T09:23:52.078Z,27.31
2022-08-02T09:26:21.819Z,27.52
2022-08-02T09:28:59.845Z,27.60
2022-08-02T09:31:27.420Z,27.32
2022-08-02T09:33:59.060Z,27.78
2022-08-02T09:36:28.341Z,27.34
2022-08-02T09:39:01.879Z,27.48
2022-08-02T09:41:30.977Z,27.47
2022-08-02T09:44:05.110Z,26.96
2022-08-02T09:46:39.051Z,27.27
2022-08-02T09:49:14.868Z,26.83
2022-08-02T09:51:54.471Z,27.23
2022-08-02T09:54:25.751Z,27.48
2022-08-02T09:57:02.345Z,27.63
2022-08-02T09:59:29.639Z,27.75
2022-08-02T10:02:01.915Z,27.53
2022-08-02T10:04:34.401Z,27.01
2022-08-02T10:07:20.100Z,27.12
2022-08-02T10:09:49.207Z,26.74
2022-08-02T10:12:16.396Z,26.16
2022-08-02T10:14:44.070Z,26.66
2022-08-02T10:17:11.201Z,26.67
2022-08-02T10:20:01.328Z,26.55
2022-08-02T10:22:25.927Z,26.59
2022-08-02T10:24:54.047Z,26.54
2022-08-02T10:27:22.488Z,25.77
2022-08-02T10:29:54.989Z,26.49
2022-08-02T10:32:31.470Z,26.68
2022-08-02T10:35:18.807Z,26.47
2022-08-02T10:37:54.320Z,26.19
2022-08-02T10:40:24.434Z,26.44
2022-08-02T10:43:01.578Z,26.54
2022-08-02T10:45:29.319Z,26.48
2022-08-02T10:47:59.934Z,26.35
2022-08-02T10:50:45.858Z,26.40
2022-08-02T10:53:28.442Z,26.41
2022-08-02T10:55:57.682Z,26.36
2022-08-02T10:58:31.743Z,26.47
2022-08-02T11:01:04.677Z,26.87
2022-08-02T11:03:32.964Z,26.93
2022-08-02T11:06:08.413Z,26.76
2022-08-02T11:08:35.731Z,26.72
2022-08-02T11:11:11.580Z,27.24
2022-08-02T11:14:08.872Z,27.37
2022-08-02T11:16:57.563Z,27.36
2022-08-02T11:19:26.045Z,26.70
2022-08-02T11:22:12.784Z,27.20
2022-08-02T11:24:42.638Z,26.89
2022-08-02T11:27:18.264Z,27.14
2022-08-02T11:29:49.910Z,27.23
2022-08-02T11:32:31.113Z,27.18
2022-08-02T11:34:59.204Z,27.09
2022-08-02T11:37:30.687Z,27.08
2022-08-02T11:39:57.679Z,27.05
2022-08-02T11:42:34.788Z,26.98
2022-08-02T11:45:02.476Z,27.12
2022-08-02T11:47:31.788Z,26.65
2022-08-02T11:50:09.402Z,26.69
2022-08-02T11:52:38.065Z,26.75
2022-08-02T11:55:07.082Z,26.89
2022-08-02T11:58:03.778Z,26.72
2022-08-02T12:00:22.371Z,26.92
2022-08-02T12:02:54.245Z,26.88
2022-08-02T12:05:44.764Z,26.59
2022-08-02T12:08:14.146Z,26.76
2022-08-02T12:10:50.464Z,26.77
2022-08-02T12:13:17.478Z,26.96
2022-08-02T12:15:46.542Z,26.93
2022-08-02T12:18:36.032Z,27.14
2022-08-02T12:21:04.588Z,27.05
2022-08-02T12:23:31.769Z,27.11
2022-08-02T12:26:09.490Z,27.42
2022-08-02T12:28:43.814Z,27.51
2022-08-02T12:31:15.493Z,27.51
2022-08-02T12:33:53.993Z,27.60
2022-08-02T12:36:24.016Z,27.50
2022-08-02T12:38:53.057Z,27.71
2022-08-02T12:41:30.240Z,27.78
2022-08-02T12:43:59.766Z,27.80
2022-08-02T12:46:27.452Z,27.71
2022-08-02T12:49:16.599Z,27.56
2022-08-02T12:51:59.069Z,27.65
2022-08-02T12:54:32.148Z,27.37
2022-08-02T12:57:12.846Z,27.80
2022-08-02T12:59:42.425Z,27.74
2022-08-02T13:02:12.252Z,27.70
2022-08-02T13:04:40.400Z,27.66
2022-08-02T13:07:08.502Z,27.60
2022-08-02T13:09:38.366Z,27.60
2022-08-02T13:12:07.495Z,27.58
2022-08-02T13:14:40.463Z,27.49
2022-08-02T13:17:11.431Z,27.41
2022-08-02T13:19:39.109Z,27.52
2022-08-02T13:22:08.444Z,26.96
2022-08-02T13:24:55.376Z,26.58
2022-08-02T13:27:26.153Z,27.32
2022-08-02T13:29:54.713Z,27.26
2022-08-02T13:32:22.921Z,26.93
2022-08-02T13:34:50.226Z,26.80
2022-08-02T13:37:18.648Z,26.99
2022-08-02T13:40:00.040Z,27.04
2022-08-02T13:42:33.364Z,27.17
2022-08-02T13:45:00.468Z,26.47
2022-08-02T13:48:04.149Z,26.86
2022-08-02T13:50:27.206Z,26.67
2022-08-02T13:52:55.938Z,26.46
2022-08-02T13:55:22.965Z,26.70
2022-08-02T13:57:53.665Z,26.81
2022-08-02T14:00:34.682Z,26.79
2022-08-02T14:03:03.540Z,26.68
2022-08-02T14:05:39.430Z,26.35
2022-08-02T14:08:16.883Z,26.61
2022-08-02T14:10:45.411Z,26.47
2022-08-02T14:13:12.465Z,26.42
2022-08-02T14:15:39.577Z,26.07
2022-08-02T14:18:06.560Z,26.38
2022-08-02T14:20:33.689Z,25.42
2022-08-02T14:23:00.728Z,26.57
2022-08-02T14:25:27.765Z,25.70
2022-08-02T14:27:54.710Z,26.39
2022-08-02T14:30:23.366Z,26.44
2022-08-02T14:32:51.221Z,26.29
2022-08-02T14:35:18.408Z,26.40
2022-08-02T14:37:45.703Z,26.34
2022-08-02T14:40:28.011Z,26.06
2022-08-02T14:42:58.156Z,26.30
2022-08-02T14:45:26.308Z,26.32
2022-08-02T14:48:04.136Z,26.23
2022-08-02T14:50:31.118Z,26.29
2022-08-02T14:52:58.084Z,26.33
2022-08-02T14:55:25.103Z,26.28
2022-08-02T14:57:52.166Z,26.34
2022-08-02T15:00:19.152Z,25.89
2022-08-02T15:02:46.197Z,26.25
2022-08-02T15:05:13.252Z,26.36
2022-08-02T15:07:43.414Z,25.85
2022-08-02T15:10:13.555Z,25.90
2022-08-02T15:12:40.590Z,26.23
2022-08-02T15:15:08.002Z,26.34
2022-08-02T15:17:35.014Z,26.38
2022-08-02T15:20:09.396Z,26.36
2022-08-02T15:22:49.461Z,26.26
2022-08-02T15:25:18.882Z,26.23
2022-08-02T15:27:45.874Z,26.27
2022-08-02T15:30:13.134Z,25.74
2022-08-02T15:32:40.159Z,26.07
2022-08-02T15:35:19.776Z,26.17
2022-08-02T15:37:46.770Z,25.57
2022-08-02T15:40:13.875Z,25.50
2022-08-02T15:42:40.954Z,25.70
2022-08-02T15:45:08.311Z,25.88
2022-08-02T15:47:41.747Z,25.55
2022-08-02T15:50:18.721Z,25.97
2022-08-02T15:52:45.858Z,25.08
2022-08-02T15:55:13.519Z,25.79
2022-08-02T15:57:40.582Z,25.39
2022-08-02T16:00:17.803Z,25.35
2022-08-02T16:02:46.918Z,25.83
2022-08-02T16:05:18.065Z,25.72
2022-08-02T16:07:45.983Z,25.76
2022-08-02T16:10:13.165Z,25.48
2022-08-02T16:12:40.355Z,25.66
2022-08-02T16:15:07.900Z,25.63
2022-08-02T16:17:51.536Z,25.61
2022-08-02T16:20:22.428Z,25.58
2022-08-02T16:22:49.688Z,25.45
2022-08-02T16:25:17.299Z,25.49
2022-08-02T16:28:06.131Z,25.39
2022-08-02T16:30:32.143Z,25.27
2022-08-02T16:32:59.099Z,25.36
2022-08-02T16:35:27.595Z,25.00
2022-08-02T16:37:54.671Z,24.78
2022-08-02T16:40:22.108Z,25.20
2022-08-02T16:42:50.747Z,25.12
2022-08-02T16:45:22.410Z,24.58
2022-08-02T16:47:55.154Z,25.14
2022-08-02T16:50:27.167Z,25.04
2022-08-02T16:52:54.504Z,24.99
2022-08-02T16:55:22.507Z,24.81
2022-08-02T16:57:50.116Z,24.90
2022-08-02T17:00:17.594Z,24.92
2022-08-02T17:02:46.985Z,24.68
2022-08-02T17:05:14.832Z,24.81
2022-08-02T17:08:08.184Z,24.78
2022-08-02T17:10:30.698Z,24.55
2022-08-02T17:13:11.273Z,24.74
2022-08-02T17:16:08.228Z,24.53
2022-08-02T17:18:28.836Z,24.61
2022-08-02T17:20:56.484Z,24.62
2022-08-02T17:24:04.076Z,24.12
2022-08-02T17:26:10.671Z,24.70
2022-08-02T17:28:56.575Z,24.38
2022-08-02T17:31:29.667Z,24.42
2022-08-02T17:33:57.161Z,24.35
2022-08-02T17:36:26.166Z,24.02
2022-08-02T17:38:53.127Z,23.79
2022-08-02T17:41:20.207Z,23.92
2022-08-02T17:44:06.421Z,23.68
2022-08-02T17:46:35.948Z,24.06
2022-08-02T17:49:17.277Z,23.23
2022-08-02T17:52:48.069Z,23.91
2022-08-02T17:54:31.919Z,23.31
2022-08-02T17:56:59.077Z,23.68
2022-08-02T17:59:30.689Z,23.78
2022-08-02T18:02:09.324Z,23.73
2022-08-02T18:04:38.680Z,23.58
2022-08-02T18:07:09.656Z,23.71
2022-08-02T18:09:43.563Z,23.67
2022-08-02T18:12:14.178Z,23.47
2022-08-02T18:14:46.183Z,23.47
2022-08-02T18:17:16.851Z,23.27
2022-08-02T18:19:57.194Z,23.42
2022-08-02T18:22:27.095Z,23.28
2022-08-02T18:24:54.618Z,23.37
2022-08-02T18:27:22.023Z,21.75
2022-08-02T18:30:00.242Z,23.31
2022-08-02T18:33:54.249Z,23.18
2022-08-02T18:35:18.960Z,23.39
2022-08-02T18:37:56.722Z,22.64
2022-08-02T18:40:26.939Z,22.25
2022-08-02T18:42:54.148Z,22.40
2022-08-02T18:45:21.834Z,22.69
2022-08-02T18:47:51.453Z,22.99
2022-08-02T18:50:20.160Z,22.98
2022-08-02T18:52:50.427Z,22.87
2022-08-02T18:56:00.211Z,22.91
2022-08-02T18:58:19.609Z,22.82
2022-08-02T19:00:51.745Z,22.81
2022-08-02T19:03:20.315Z,22.68
2022-08-02T19:05:51.754Z,21.92
2022-08-02T19:08:25.452Z,22.15
2022-08-02T19:10:55.989Z,22.52
2022-08-02T19:13:23.873Z,22.56
2022-08-02T19:15:50.938Z,22.68
2022-08-02T19:18:17.885Z,22.58
2022-08-02T19:20:48.041Z,22.60
2022-08-02T19:23:17.120Z,22.56
2022-08-02T19:25:54.395Z,22.69
2022-08-02T19:28:26.049Z,22.21
2022-08-02T19:30:55.267Z,22.63
2022-08-02T19:36:09.849Z,22.75
2022-08-02T19:38:43.726Z,22.47
2022-08-02T19:41:13.215Z,22.25
2022-08-02T19:44:25.766Z,22.07
2022-08-02T19:46:27.519Z,22.52
2022-08-02T19:48:54.496Z,22.45
2022-08-02T19:51:49.583Z,22.12
2022-08-02T19:54:10.580Z,22.64
2022-08-02T19:56:38.080Z,22.36
2022-08-02T19:59:13.346Z,22.39
2022-08-02T20:01:44.836Z,22.48
2022-08-02T20:04:14.092Z,22.17
2022-08-02T20:09:33.159Z,22.44
2022-08-02T20:12:14.247Z,22.20
2022-08-02T20:14:51.258Z,22.26
2022-08-02T20:17:20.950Z,21.52
2022-08-02T20:19:48.160Z,22.37
2022-08-02T20:22:16.350Z,22.31
2022-08-02T20:24:43.600Z,21.79
2022-08-02T20:27:17.011Z,22.26
2022-08-02T20:29:49.904Z,21.70
2022-08-02T20:32:22.550Z,21.37
2022-08-02T20:34:50.102Z,21.89
2022-08-02T20:38:00.721Z,22.21
2022-08-02T20:40:05.190Z,22.41
2022-08-02T20:42:32.224Z,22.11
2022-08-02T20:45:00.302Z,21.85
2022-08-02T20:47:28.264Z,22.22
2022-08-02T20:50:31.185Z,22.11
2022-08-02T20:53:03.165Z,22.11
2022-08-02T20:55:32.012Z,21.56
2022-08-02T20:58:02.071Z,21.66
2022-08-02T21:00:30.364Z,22.21
2022-08-02T21:02:59.591Z,21.78
2022-08-02T21:05:53.907Z,21.50
2022-08-02T21:08:15.139Z,21.70
2022-08-02T21:13:31.031Z,21.39
2022-08-02T21:16:02.476Z,21.68
2022-08-02T21:18:40.811Z,21.58
2022-08-02T21:21:10.165Z,21.86
2022-08-02T21:23:38.466Z,22.00
2022-08-02T21:26:15.849Z,21.39
2022-08-02T21:28:47.226Z,22.08
2022-08-02T21:31:18.457Z,21.97
2022-08-02T21:33:58.255Z,22.03
2022-08-02T21:36:32.186Z,21.94
2022-08-02T21:39:08.879Z,21.85
2022-08-02T21:41:46.477Z,21.94
2022-08-02T21:44:19.966Z,21.99
2022-08-02T21:46:49.457Z,21.90
2022-08-02T21:49:40.544Z,21.95
2022-08-02T21:52:09.059Z,21.89
2022-08-02T21:54:40.006Z,21.78
2022-08-02T21:57:15.563Z,21.75
2022-08-02T21:59:46.394Z,21.33
2022-08-02T22:02:15.952Z,21.28
2022-08-02T22:04:47.925Z,21.73
2022-08-02T22:07:23.602Z,21.68
2022-08-02T22:09:52.703Z,21.20
2022-08-02T22:12:20.795Z,21.61
2022-08-02T22:14:55.481Z,21.58
2022-08-02T22:17:51.271Z,21.56
2022-08-02T22:20:15.548Z,21.07
2022-08-02T22:22:50.399Z,21.03
2022-08-02T22:28:35.029Z,21.46
2022-08-02T22:30:56.827Z,21.08
2022-08-02T22:33:47.337Z,21.40
2022-08-02T22:36:28.711Z,21.34
2022-08-02T22:38:55.897Z,21.18
2022-08-02T22:41:23.014Z,21.29
2022-08-02T22:43:50.111Z,21.13
2022-08-02T22:46:17.132Z,21.26
2022-08-02T22:48:45.445Z,20.41
2022-08-02T22:51:13.987Z,20.98
2022-08-02T22:53:42.618Z,20.33
2022-08-02T22:56:10.526Z,21.12
2022-08-02T22:58:54.483Z,22.42
2022-08-02T22:58:57.183Z,22.20
2022-08-02T22:59:01.946Z,21.84
2022-08-02T22:59:04.823Z,21.26
2022-08-02T23:01:25.123Z,21.03
2022-08-02T23:03:52.193Z,21.16
2022-08-02T23:06:22.536Z,20.98
2022-08-02T23:08:50.327Z,21.12
2022-08-02T23:11:17.635Z,21.12
2022-08-02T23:13:44.703Z,20.85
2022-08-02T23:16:30.427Z,20.93
2022-08-02T23:19:15.948Z,20.41
2022-08-02T23:21:45.726Z,20.93
2022-08-02T23:24:30.546Z,20.64
2022-08-02T23:26:57.591Z,20.86
2022-08-02T23:29:24.759Z,20.86
2022-08-02T23:31:51.816Z,20.71
2022-08-02T23:34:19.997Z,20.84
2022-08-02T23:36:46.966Z,20.83
2022-08-02T23:39:13.905Z,20.77
2022-08-02T23:41:41.146Z,20.74
2022-08-02T23:44:13.959Z,20.15
2022-08-02T23:46:47.104Z,20.66
2022-08-02T23:49:14.800Z,20.64
2022-08-02T23:51:42.014Z,20.59
2022-08-02T23:54:09.872Z,20.11
2022-08-02T23:56:37.459Z,20.42
2022-08-02T23:59:05.442Z,20.41
